sensor_id;sensor_type;location;lat;lon;timestamp;P1;durP1;ratioP1;P2;durP2;ratioP2
22191;SDS011;11261;52.456;10.850;2023-05-23T00:01:40;7.43;;;4.88;;
22191;SDS011;11261;52.456;10.850;2023-05-23T00:04:08;6.63;;;4.97;;
22191;SDS011;11261;52.456;10.850;2023-05-23T00:06:42;5.90;;;5.00;;
22191;SDS011;11261;52.456;10.850;2023-05-23T00:09:14;6.82;;;4.95;;
22191;SDS011;11261;52.456;10.850;2023-05-23T00:11:42;6.97;;;5.13;;
22191;SDS011;11261;52.456;10.850;2023-05-23T00:14:11;8.80;;;5.57;;
22191;SDS011;11261;52.456;10.850;2023-05-23T00:16:40;7.10;;;5.57;;
22191;SDS011;11261;52.456;10.850;2023-05-23T00:19:10;7.72;;;5.82;;
22191;SDS011;11261;52.456;10.850;2023-05-23T00:21:41;8.80;;;6.38;;
22191;SDS011;11261;52.456;10.850;2023-05-23T00:24:10;8.82;;;6.20;;
22191;SDS011;11261;52.456;10.850;2023-05-23T00:26:41;9.90;;;6.43;;
22191;SDS011;11261;52.456;10.850;2023-05-23T00:29:09;7.82;;;6.53;;
22191;SDS011;11261;52.456;10.850;2023-05-23T00:31:41;7.75;;;5.85;;
22191;SDS011;11261;52.456;10.850;2023-05-23T00:34:11;8.25;;;6.18;;
22191;SDS011;11261;52.456;10.850;2023-05-23T00:36:40;10.13;;;6.63;;
22191;SDS011;11261;52.456;10.850;2023-05-23T00:39:10;11.05;;;6.53;;
22191;SDS011;11261;52.456;10.850;2023-05-23T00:41:47;7.35;;;6.13;;
22191;SDS011;11261;52.456;10.850;2023-05-23T00:44:18;7.45;;;5.30;;
22191;SDS011;11261;52.456;10.850;2023-05-23T00:46:48;6.28;;;5.57;;
22191;SDS011;11261;52.456;10.850;2023-05-23T00:49:20;9.10;;;6.15;;
22191;SDS011;11261;52.456;10.850;2023-05-23T00:51:49;8.40;;;6.40;;
22191;SDS011;11261;52.456;10.850;2023-05-23T00:54:19;6.93;;;4.78;;
22191;SDS011;11261;52.456;10.850;2023-05-23T00:56:54;7.15;;;5.65;;
22191;SDS011;11261;52.456;10.850;2023-05-23T00:59:22;6.90;;;5.25;;
22191;SDS011;11261;52.456;10.850;2023-05-23T01:01:53;7.32;;;6.03;;
22191;SDS011;11261;52.456;10.850;2023-05-23T01:04:22;9.60;;;6.55;;
22191;SDS011;11261;52.456;10.850;2023-05-23T01:06:53;8.88;;;5.78;;
22191;SDS011;11261;52.456;10.850;2023-05-23T01:09:22;6.70;;;5.38;;
22191;SDS011;11261;52.456;10.850;2023-05-23T01:11:57;8.07;;;5.50;;
22191;SDS011;11261;52.456;10.850;2023-05-23T01:14:37;9.27;;;5.65;;
22191;SDS011;11261;52.456;10.850;2023-05-23T01:17:12;8.10;;;5.35;;
22191;SDS011;11261;52.456;10.850;2023-05-23T01:19:48;8.00;;;5.70;;
22191;SDS011;11261;52.456;10.850;2023-05-23T01:22:32;7.18;;;5.50;;
22191;SDS011;11261;52.456;10.850;2023-05-23T01:25:10;10.45;;;6.75;;
22191;SDS011;11261;52.456;10.850;2023-05-23T01:27:50;12.38;;;8.82;;
22191;SDS011;11261;52.456;10.850;2023-05-23T01:30:22;13.85;;;9.27;;
22191;SDS011;11261;52.456;10.850;2023-05-23T01:32:52;15.13;;;10.50;;
22191;SDS011;11261;52.456;10.850;2023-05-23T01:35:23;13.25;;;10.07;;
22191;SDS011;11261;52.456;10.850;2023-05-23T01:37:53;13.98;;;9.98;;
22191;SDS011;11261;52.456;10.850;2023-05-23T01:40:21;15.05;;;9.55;;
22191;SDS011;11261;52.456;10.850;2023-05-23T01:42:53;12.73;;;9.90;;
22191;SDS011;11261;52.456;10.850;2023-05-23T01:45:23;12.32;;;9.13;;
22191;SDS011;11261;52.456;10.850;2023-05-23T01:47:54;12.98;;;8.13;;
22191;SDS011;11261;52.456;10.850;2023-05-23T01:50:24;11.27;;;8.25;;
22191;SDS011;11261;52.456;10.850;2023-05-23T01:52:52;12.57;;;9.80;;
22191;SDS011;11261;52.456;10.850;2023-05-23T01:55:22;12.40;;;9.20;;
22191;SDS011;11261;52.456;10.850;2023-05-23T01:57:54;15.05;;;9.02;;
22191;SDS011;11261;52.456;10.850;2023-05-23T02:00:23;13.60;;;9.35;;
22191;SDS011;11261;52.456;10.850;2023-05-23T02:02:52;10.82;;;8.02;;
22191;SDS011;11261;52.456;10.850;2023-05-23T02:05:20;14.40;;;9.95;;
22191;SDS011;11261;52.456;10.850;2023-05-23T02:07:49;11.30;;;8.43;;
22191;SDS011;11261;52.456;10.850;2023-05-23T02:10:17;14.70;;;10.40;;
22191;SDS011;11261;52.456;10.850;2023-05-23T02:12:46;16.60;;;9.98;;
22191;SDS011;11261;52.456;10.850;2023-05-23T02:15:15;15.23;;;10.07;;
22191;SDS011;11261;52.456;10.850;2023-05-23T02:17:44;13.30;;;10.23;;
22191;SDS011;11261;52.456;10.850;2023-05-23T02:20:13;14.23;;;9.73;;
22191;SDS011;11261;52.456;10.850;2023-05-23T02:22:44;14.43;;;10.27;;
22191;SDS011;11261;52.456;10.850;2023-05-23T02:25:12;14.35;;;9.98;;
22191;SDS011;11261;52.456;10.850;2023-05-23T02:27:41;15.05;;;9.98;;
22191;SDS011;11261;52.456;10.850;2023-05-23T02:30:10;13.80;;;10.50;;
22191;SDS011;11261;52.456;10.850;2023-05-23T02:32:40;14.50;;;9.55;;
22191;SDS011;11261;52.456;10.850;2023-05-23T02:35:09;14.07;;;8.07;;
22191;SDS011;11261;52.456;10.850;2023-05-23T02:37:38;14.57;;;11.00;;
22191;SDS011;11261;52.456;10.850;2023-05-23T02:40:06;14.98;;;9.50;;
22191;SDS011;11261;52.456;10.850;2023-05-23T02:42:35;10.30;;;8.35;;
22191;SDS011;11261;52.456;10.850;2023-05-23T02:45:04;17.38;;;10.35;;
22191;SDS011;11261;52.456;10.850;2023-05-23T02:47:33;15.60;;;11.32;;
22191;SDS011;11261;52.456;10.850;2023-05-23T02:50:03;16.67;;;9.57;;
22191;SDS011;11261;52.456;10.850;2023-05-23T02:52:32;15.15;;;10.95;;
22191;SDS011;11261;52.456;10.850;2023-05-23T02:55:00;15.15;;;11.57;;
22191;SDS011;11261;52.456;10.850;2023-05-23T02:57:28;17.80;;;12.02;;
22191;SDS011;11261;52.456;10.850;2023-05-23T02:59:57;15.75;;;10.45;;
22191;SDS011;11261;52.456;10.850;2023-05-23T03:02:25;16.88;;;11.20;;
22191;SDS011;11261;52.456;10.850;2023-05-23T03:04:53;18.17;;;12.57;;
22191;SDS011;11261;52.456;10.850;2023-05-23T03:07:24;18.00;;;12.35;;
22191;SDS011;11261;52.456;10.850;2023-05-23T03:09:54;20.45;;;13.48;;
22191;SDS011;11261;52.456;10.850;2023-05-23T03:12:22;14.88;;;10.77;;
22191;SDS011;11261;52.456;10.850;2023-05-23T03:14:51;19.55;;;13.27;;
22191;SDS011;11261;52.456;10.850;2023-05-23T03:17:19;19.88;;;13.50;;
22191;SDS011;11261;52.456;10.850;2023-05-23T03:19:47;19.38;;;13.13;;
22191;SDS011;11261;52.456;10.850;2023-05-23T03:22:16;17.75;;;11.45;;
22191;SDS011;11261;52.456;10.850;2023-05-23T03:24:46;18.05;;;13.30;;
22191;SDS011;11261;52.456;10.850;2023-05-23T03:27:14;19.88;;;13.13;;
22191;SDS011;11261;52.456;10.850;2023-05-23T03:29:42;24.95;;;14.70;;
22191;SDS011;11261;52.456;10.850;2023-05-23T03:32:10;21.38;;;13.85;;
22191;SDS011;11261;52.456;10.850;2023-05-23T03:34:39;20.20;;;14.45;;
22191;SDS011;11261;52.456;10.850;2023-05-23T03:37:07;19.85;;;13.80;;
22191;SDS011;11261;52.456;10.850;2023-05-23T03:39:36;24.55;;;13.98;;
22191;SDS011;11261;52.456;10.850;2023-05-23T03:42:06;20.77;;;13.93;;
22191;SDS011;11261;52.456;10.850;2023-05-23T03:44:34;24.08;;;15.77;;
22191;SDS011;11261;52.456;10.850;2023-05-23T03:47:03;27.20;;;15.20;;
22191;SDS011;11261;52.456;10.850;2023-05-23T03:49:32;28.60;;;16.95;;
22191;SDS011;11261;52.456;10.850;2023-05-23T03:52:01;29.27;;;18.08;;
22191;SDS011;11261;52.456;10.850;2023-05-23T03:54:29;29.60;;;17.30;;
22191;SDS011;11261;52.456;10.850;2023-05-23T03:56:57;28.85;;;17.80;;
22191;SDS011;11261;52.456;10.850;2023-05-23T03:59:27;27.15;;;15.65;;
22191;SDS011;11261;52.456;10.850;2023-05-23T04:01:56;26.00;;;15.75;;
22191;SDS011;11261;52.456;10.850;2023-05-23T04:04:26;22.70;;;14.95;;
22191;SDS011;11261;52.456;10.850;2023-05-23T04:06:54;22.05;;;14.50;;
22191;SDS011;11261;52.456;10.850;2023-05-23T04:09:23;24.95;;;15.18;;
22191;SDS011;11261;52.456;10.850;2023-05-23T04:11:51;24.85;;;15.35;;
22191;SDS011;11261;52.456;10.850;2023-05-23T04:14:20;23.42;;;15.00;;
22191;SDS011;11261;52.456;10.850;2023-05-23T04:16:49;26.27;;;15.45;;
22191;SDS011;11261;52.456;10.850;2023-05-23T04:19:18;25.77;;;15.43;;
22191;SDS011;11261;52.456;10.850;2023-05-23T04:21:46;23.73;;;15.10;;
22191;SDS011;11261;52.456;10.850;2023-05-23T04:24:15;25.05;;;14.55;;
22191;SDS011;11261;52.456;10.850;2023-05-23T04:26:44;20.35;;;12.30;;
22191;SDS011;11261;52.456;10.850;2023-05-23T04:29:12;18.40;;;10.65;;
22191;SDS011;11261;52.456;10.850;2023-05-23T04:31:41;18.02;;;11.52;;
22191;SDS011;11261;52.456;10.850;2023-05-23T04:34:13;18.58;;;11.45;;
22191;SDS011;11261;52.456;10.850;2023-05-23T04:36:42;18.00;;;11.38;;
22191;SDS011;11261;52.456;10.850;2023-05-23T04:39:11;20.88;;;12.63;;
22191;SDS011;11261;52.456;10.850;2023-05-23T04:41:39;18.23;;;11.63;;
22191;SDS011;11261;52.456;10.850;2023-05-23T04:44:10;20.58;;;11.95;;
22191;SDS011;11261;52.456;10.850;2023-05-23T04:46:40;17.08;;;11.27;;
22191;SDS011;11261;52.456;10.850;2023-05-23T04:49:08;17.77;;;10.90;;
22191;SDS011;11261;52.456;10.850;2023-05-23T04:51:38;17.50;;;10.43;;
22191;SDS011;11261;52.456;10.850;2023-05-23T04:54:06;17.75;;;10.40;;
22191;SDS011;11261;52.456;10.850;2023-05-23T04:56:35;15.43;;;10.43;;
22191;SDS011;11261;52.456;10.850;2023-05-23T04:59:04;16.17;;;10.65;;
22191;SDS011;11261;52.456;10.850;2023-05-23T05:01:34;18.67;;;11.10;;
22191;SDS011;11261;52.456;10.850;2023-05-23T05:04:06;14.57;;;9.93;;
22191;SDS011;11261;52.456;10.850;2023-05-23T05:06:34;18.98;;;11.18;;
22191;SDS011;11261;52.456;10.850;2023-05-23T05:09:05;16.60;;;10.40;;
22191;SDS011;11261;52.456;10.850;2023-05-23T05:11:33;17.15;;;11.10;;
22191;SDS011;11261;52.456;10.850;2023-05-23T05:14:03;14.30;;;10.30;;
22191;SDS011;11261;52.456;10.850;2023-05-23T05:16:31;14.82;;;9.23;;
22191;SDS011;11261;52.456;10.850;2023-05-23T05:19:00;14.90;;;9.90;;
22191;SDS011;11261;52.456;10.850;2023-05-23T05:21:28;13.93;;;9.52;;
22191;SDS011;11261;52.456;10.850;2023-05-23T05:23:57;13.05;;;8.07;;
22191;SDS011;11261;52.456;10.850;2023-05-23T05:26:28;14.43;;;9.02;;
22191;SDS011;11261;52.456;10.850;2023-05-23T05:28:57;14.13;;;9.25;;
22191;SDS011;11261;52.456;10.850;2023-05-23T05:31:25;13.00;;;7.93;;
22191;SDS011;11261;52.456;10.850;2023-05-23T05:33:55;14.55;;;8.20;;
22191;SDS011;11261;52.456;10.850;2023-05-23T05:36:23;11.75;;;7.78;;
22191;SDS011;11261;52.456;10.850;2023-05-23T05:38:52;10.93;;;7.15;;
22191;SDS011;11261;52.456;10.850;2023-05-23T05:41:20;11.88;;;7.68;;
22191;SDS011;11261;52.456;10.850;2023-05-23T05:43:50;14.00;;;8.02;;
22191;SDS011;11261;52.456;10.850;2023-05-23T05:46:18;11.77;;;7.00;;
22191;SDS011;11261;52.456;10.850;2023-05-23T05:48:47;11.68;;;7.30;;
22191;SDS011;11261;52.456;10.850;2023-05-23T05:51:15;11.40;;;7.00;;
22191;SDS011;11261;52.456;10.850;2023-05-23T05:53:43;9.70;;;7.00;;
22191;SDS011;11261;52.456;10.850;2023-05-23T05:56:11;10.35;;;6.22;;
22191;SDS011;11261;52.456;10.850;2023-05-23T05:58:40;10.43;;;6.57;;
22191;SDS011;11261;52.456;10.850;2023-05-23T06:01:09;9.57;;;6.65;;
22191;SDS011;11261;52.456;10.850;2023-05-23T06:03:37;12.85;;;7.07;;
22191;SDS011;11261;52.456;10.850;2023-05-23T06:06:07;11.82;;;6.80;;
22191;SDS011;11261;52.456;10.850;2023-05-23T06:08:35;10.25;;;6.40;;
22191;SDS011;11261;52.456;10.850;2023-05-23T06:11:04;10.00;;;7.20;;
22191;SDS011;11261;52.456;10.850;2023-05-23T06:13:32;13.27;;;7.68;;
22191;SDS011;11261;52.456;10.850;2023-05-23T06:16:01;14.32;;;7.60;;
22191;SDS011;11261;52.456;10.850;2023-05-23T06:18:31;13.15;;;7.90;;
22191;SDS011;11261;52.456;10.850;2023-05-23T06:20:59;12.52;;;7.78;;
22191;SDS011;11261;52.456;10.850;2023-05-23T06:23:27;12.30;;;7.88;;
22191;SDS011;11261;52.456;10.850;2023-05-23T06:25:56;13.10;;;8.55;;
22191;SDS011;11261;52.456;10.850;2023-05-23T06:28:25;13.90;;;7.78;;
22191;SDS011;11261;52.456;10.850;2023-05-23T06:30:53;12.70;;;7.93;;
22191;SDS011;11261;52.456;10.850;2023-05-23T06:33:21;10.48;;;7.22;;
22191;SDS011;11261;52.456;10.850;2023-05-23T06:35:51;11.88;;;7.35;;
22191;SDS011;11261;52.456;10.850;2023-05-23T06:38:19;12.93;;;8.65;;
22191;SDS011;11261;52.456;10.850;2023-05-23T06:40:47;12.15;;;7.95;;
22191;SDS011;11261;52.456;10.850;2023-05-23T06:43:15;14.60;;;8.90;;
22191;SDS011;11261;52.456;10.850;2023-05-23T06:45:44;10.65;;;8.05;;
22191;SDS011;11261;52.456;10.850;2023-05-23T06:48:13;13.35;;;7.85;;
22191;SDS011;11261;52.456;10.850;2023-05-23T06:50:42;14.88;;;7.80;;
22191;SDS011;11261;52.456;10.850;2023-05-23T06:53:11;9.43;;;6.65;;
22191;SDS011;11261;52.456;10.850;2023-05-23T06:55:44;12.45;;;7.50;;
22191;SDS011;11261;52.456;10.850;2023-05-23T06:58:12;10.05;;;6.80;;
22191;SDS011;11261;52.456;10.850;2023-05-23T07:00:40;10.90;;;7.40;;
22191;SDS011;11261;52.456;10.850;2023-05-23T07:03:09;13.10;;;8.00;;
22191;SDS011;11261;52.456;10.850;2023-05-23T07:05:38;12.13;;;7.68;;
22191;SDS011;11261;52.456;10.850;2023-05-23T07:08:06;9.70;;;6.95;;
22191;SDS011;11261;52.456;10.850;2023-05-23T07:10:38;12.75;;;7.65;;
22191;SDS011;11261;52.456;10.850;2023-05-23T07:13:07;11.77;;;7.70;;
22191;SDS011;11261;52.456;10.850;2023-05-23T07:15:36;13.73;;;8.60;;
22191;SDS011;11261;52.456;10.850;2023-05-23T07:18:04;12.68;;;7.80;;
22191;SDS011;11261;52.456;10.850;2023-05-23T07:20:32;14.68;;;7.93;;
22191;SDS011;11261;52.456;10.850;2023-05-23T07:23:01;14.27;;;7.60;;
22191;SDS011;11261;52.456;10.850;2023-05-23T07:25:29;11.93;;;7.47;;
22191;SDS011;11261;52.456;10.850;2023-05-23T07:27:59;13.75;;;8.18;;
22191;SDS011;11261;52.456;10.850;2023-05-23T07:30:27;14.25;;;8.05;;
22191;SDS011;11261;52.456;10.850;2023-05-23T07:32:58;13.82;;;7.70;;
22191;SDS011;11261;52.456;10.850;2023-05-23T07:35:27;11.27;;;7.05;;
22191;SDS011;11261;52.456;10.850;2023-05-23T07:37:55;12.65;;;7.65;;
22191;SDS011;11261;52.456;10.850;2023-05-23T07:40:23;8.82;;;6.85;;
22191;SDS011;11261;52.456;10.850;2023-05-23T07:42:51;12.02;;;7.28;;
22191;SDS011;11261;52.456;10.850;2023-05-23T07:45:22;12.20;;;7.10;;
22191;SDS011;11261;52.456;10.850;2023-05-23T07:47:50;10.02;;;6.72;;
22191;SDS011;11261;52.456;10.850;2023-05-23T07:50:19;10.70;;;6.80;;
22191;SDS011;11261;52.456;10.850;2023-05-23T07:52:47;10.80;;;6.35;;
22191;SDS011;11261;52.456;10.850;2023-05-23T07:55:17;9.55;;;6.57;;
22191;SDS011;11261;52.456;10.850;2023-05-23T07:57:45;11.55;;;7.20;;
22191;SDS011;11261;52.456;10.850;2023-05-23T08:00:14;11.32;;;6.35;;
22191;SDS011;11261;52.456;10.850;2023-05-23T08:02:44;10.88;;;6.10;;
22191;SDS011;11261;52.456;10.850;2023-05-23T08:05:12;8.52;;;5.80;;
22191;SDS011;11261;52.456;10.850;2023-05-23T08:07:41;8.95;;;5.57;;
22191;SDS011;11261;52.456;10.850;2023-05-23T08:10:09;9.13;;;6.25;;
22191;SDS011;11261;52.456;10.850;2023-05-23T08:12:37;9.45;;;6.43;;
22191;SDS011;11261;52.456;10.850;2023-05-23T08:15:06;11.05;;;6.28;;
22191;SDS011;11261;52.456;10.850;2023-05-23T08:17:35;8.27;;;5.80;;
22191;SDS011;11261;52.456;10.850;2023-05-23T08:20:05;8.40;;;4.82;;
22191;SDS011;11261;52.456;10.850;2023-05-23T08:22:35;7.15;;;5.15;;
22191;SDS011;11261;52.456;10.850;2023-05-23T08:25:03;7.90;;;5.47;;
22191;SDS011;11261;52.456;10.850;2023-05-23T08:27:32;8.20;;;5.35;;
22191;SDS011;11261;52.456;10.850;2023-05-23T08:30:02;6.93;;;4.97;;
22191;SDS011;11261;52.456;10.850;2023-05-23T08:32:32;8.30;;;5.10;;
22191;SDS011;11261;52.456;10.850;2023-05-23T08:35:00;6.47;;;4.93;;
22191;SDS011;11261;52.456;10.850;2023-05-23T08:37:30;8.32;;;5.40;;
22191;SDS011;11261;52.456;10.850;2023-05-23T08:43:46;5.40;;;4.65;;
22191;SDS011;11261;52.456;10.850;2023-05-23T08:46:15;5.60;;;4.07;;
22191;SDS011;11261;52.456;10.850;2023-05-23T08:48:45;6.35;;;4.30;;
22191;SDS011;11261;52.456;10.850;2023-05-23T08:51:20;6.43;;;4.10;;
22191;SDS011;11261;52.456;10.850;2023-05-23T08:53:52;5.07;;;3.90;;
22191;SDS011;11261;52.456;10.850;2023-05-23T08:56:22;5.82;;;3.67;;
22191;SDS011;11261;52.456;10.850;2023-05-23T08:58:51;6.20;;;3.13;;
22191;SDS011;11261;52.456;10.850;2023-05-23T09:01:20;4.88;;;3.42;;
22191;SDS011;11261;52.456;10.850;2023-05-23T09:03:50;4.72;;;3.38;;
22191;SDS011;11261;52.456;10.850;2023-05-23T09:06:19;4.32;;;3.00;;
22191;SDS011;11261;52.456;10.850;2023-05-23T09:08:48;3.47;;;2.80;;
22191;SDS011;11261;52.456;10.850;2023-05-23T09:11:19;3.05;;;2.58;;
22191;SDS011;11261;52.456;10.850;2023-05-23T09:13:49;4.22;;;3.17;;
22191;SDS011;11261;52.456;10.850;2023-05-23T09:16:17;3.40;;;2.55;;
22191;SDS011;11261;52.456;10.850;2023-05-23T09:18:46;2.17;;;1.98;;
22191;SDS011;11261;52.456;10.850;2023-05-23T09:21:14;2.63;;;2.35;;
22191;SDS011;11261;52.456;10.850;2023-05-23T09:23:43;2.75;;;2.30;;
22191;SDS011;11261;52.456;10.850;2023-05-23T09:26:11;3.15;;;2.13;;
22191;SDS011;11261;52.456;10.850;2023-05-23T09:28:41;2.83;;;2.42;;
22191;SDS011;11261;52.456;10.850;2023-05-23T09:31:11;4.28;;;2.58;;
22191;SDS011;11261;52.456;10.850;2023-05-23T09:33:42;2.47;;;2.13;;
22191;SDS011;11261;52.456;10.850;2023-05-23T09:36:12;2.60;;;2.40;;
22191;SDS011;11261;52.456;10.850;2023-05-23T09:38:41;3.05;;;2.67;;
22191;SDS011;11261;52.456;10.850;2023-05-23T09:41:10;3.33;;;2.78;;
22191;SDS011;11261;52.456;10.850;2023-05-23T09:43:48;3.30;;;2.90;;
22191;SDS011;11261;52.456;10.850;2023-05-23T09:46:17;2.90;;;2.63;;
22191;SDS011;11261;52.456;10.850;2023-05-23T09:48:47;5.30;;;3.92;;
22191;SDS011;11261;52.456;10.850;2023-05-23T09:51:17;5.05;;;2.95;;
22191;SDS011;11261;52.456;10.850;2023-05-23T09:53:47;4.93;;;4.07;;
22191;SDS011;11261;52.456;10.850;2023-05-23T09:56:17;5.78;;;4.53;;
22191;SDS011;11261;52.456;10.850;2023-05-23T09:58:48;6.28;;;4.88;;
22191;SDS011;11261;52.456;10.850;2023-05-23T10:01:17;7.68;;;5.68;;
22191;SDS011;11261;52.456;10.850;2023-05-23T10:03:47;6.63;;;5.07;;
22191;SDS011;11261;52.456;10.850;2023-05-23T10:06:20;7.25;;;5.72;;
22191;SDS011;11261;52.456;10.850;2023-05-23T10:08:53;8.13;;;6.10;;
22191;SDS011;11261;52.456;10.850;2023-05-23T10:14:26;7.72;;;6.03;;
22191;SDS011;11261;52.456;10.850;2023-05-23T10:16:58;8.63;;;6.70;;
22191;SDS011;11261;52.456;10.850;2023-05-23T10:19:33;8.68;;;6.28;;
22191;SDS011;11261;52.456;10.850;2023-05-23T10:22:05;8.20;;;6.00;;
22191;SDS011;11261;52.456;10.850;2023-05-23T10:24:36;7.85;;;6.25;;
22191;SDS011;11261;52.456;10.850;2023-05-23T10:27:05;9.75;;;6.30;;
22191;SDS011;11261;52.456;10.850;2023-05-23T10:29:35;9.68;;;6.35;;
22191;SDS011;11261;52.456;10.850;2023-05-23T10:32:04;6.85;;;6.13;;
22191;SDS011;11261;52.456;10.850;2023-05-23T10:34:43;7.30;;;6.22;;
22191;SDS011;11261;52.456;10.850;2023-05-23T10:37:24;7.82;;;5.28;;
22191;SDS011;11261;52.456;10.850;2023-05-23T10:39:59;4.45;;;3.42;;
22191;SDS011;11261;52.456;10.850;2023-05-23T10:42:34;4.10;;;3.13;;
22191;SDS011;11261;52.456;10.850;2023-05-23T10:45:17;6.50;;;3.67;;
22191;SDS011;11261;52.456;10.850;2023-05-23T10:47:46;6.13;;;2.88;;
22191;SDS011;11261;52.456;10.850;2023-05-23T10:50:16;3.88;;;2.28;;
22191;SDS011;11261;52.456;10.850;2023-05-23T10:52:58;3.42;;;2.65;;
22191;SDS011;11261;52.456;10.850;2023-05-23T10:55:32;3.13;;;2.55;;
22191;SDS011;11261;52.456;10.850;2023-05-23T10:58:11;3.60;;;2.50;;
22191;SDS011;11261;52.456;10.850;2023-05-23T11:00:50;3.25;;;2.45;;
22191;SDS011;11261;52.456;10.850;2023-05-23T11:03:29;3.45;;;2.15;;
22191;SDS011;11261;52.456;10.850;2023-05-23T11:05:59;3.60;;;2.47;;
22191;SDS011;11261;52.456;10.850;2023-05-23T11:08:35;4.25;;;2.22;;
22191;SDS011;11261;52.456;10.850;2023-05-23T11:11:13;3.55;;;2.40;;
22191;SDS011;11261;52.456;10.850;2023-05-23T11:13:54;4.03;;;2.30;;
22191;SDS011;11261;52.456;10.850;2023-05-23T11:16:28;3.28;;;2.22;;
22191;SDS011;11261;52.456;10.850;2023-05-23T11:21:48;4.57;;;2.80;;
22191;SDS011;11261;52.456;10.850;2023-05-23T11:24:18;3.35;;;2.50;;
22191;SDS011;11261;52.456;10.850;2023-05-23T11:26:53;5.22;;;3.08;;
22191;SDS011;11261;52.456;10.850;2023-05-23T11:29:26;3.97;;;2.63;;
22191;SDS011;11261;52.456;10.850;2023-05-23T11:31:56;4.55;;;2.88;;
22191;SDS011;11261;52.456;10.850;2023-05-23T11:34:25;4.82;;;2.88;;
22191;SDS011;11261;52.456;10.850;2023-05-23T11:36:53;9.32;;;3.80;;
22191;SDS011;11261;52.456;10.850;2023-05-23T11:39:22;5.28;;;2.90;;
22191;SDS011;11261;52.456;10.850;2023-05-23T11:41:57;7.13;;;3.08;;
22191;SDS011;11261;52.456;10.850;2023-05-23T11:44:26;5.40;;;3.40;;
22191;SDS011;11261;52.456;10.850;2023-05-23T11:46:59;6.90;;;3.38;;
22191;SDS011;11261;52.456;10.850;2023-05-23T11:49:29;6.75;;;3.17;;
22191;SDS011;11261;52.456;10.850;2023-05-23T11:51:57;3.83;;;2.42;;
22191;SDS011;11261;52.456;10.850;2023-05-23T11:54:27;5.65;;;2.72;;
22191;SDS011;11261;52.456;10.850;2023-05-23T11:56:55;5.13;;;2.80;;
22191;SDS011;11261;52.456;10.850;2023-05-23T11:59:24;4.80;;;2.88;;
22191;SDS011;11261;52.456;10.850;2023-05-23T12:01:54;4.50;;;2.63;;
22191;SDS011;11261;52.456;10.850;2023-05-23T12:04:24;6.20;;;2.45;;
22191;SDS011;11261;52.456;10.850;2023-05-23T12:06:53;4.57;;;2.45;;
22191;SDS011;11261;52.456;10.850;2023-05-23T12:09:21;5.78;;;3.00;;
22191;SDS011;11261;52.456;10.850;2023-05-23T12:11:49;6.03;;;2.85;;
22191;SDS011;11261;52.456;10.850;2023-05-23T12:14:18;5.50;;;3.05;;
22191;SDS011;11261;52.456;10.850;2023-05-23T12:16:46;7.05;;;2.47;;
22191;SDS011;11261;52.456;10.850;2023-05-23T12:19:15;4.40;;;2.05;;
22191;SDS011;11261;52.456;10.850;2023-05-23T12:21:45;6.15;;;2.45;;
22191;SDS011;11261;52.456;10.850;2023-05-23T12:24:15;6.15;;;2.58;;
22191;SDS011;11261;52.456;10.850;2023-05-23T12:26:48;7.50;;;2.58;;
22191;SDS011;11261;52.456;10.850;2023-05-23T12:29:17;4.93;;;2.65;;
22191;SDS011;11261;52.456;10.850;2023-05-23T12:31:48;4.90;;;1.95;;
22191;SDS011;11261;52.456;10.850;2023-05-23T12:34:18;5.40;;;2.70;;
22191;SDS011;11261;52.456;10.850;2023-05-23T12:36:49;5.40;;;2.60;;
22191;SDS011;11261;52.456;10.850;2023-05-23T12:39:42;4.57;;;1.95;;
22191;SDS011;11261;52.456;10.850;2023-05-23T12:42:10;6.53;;;2.47;;
22191;SDS011;11261;52.456;10.850;2023-05-23T12:44:39;8.48;;;2.53;;
22191;SDS011;11261;52.456;10.850;2023-05-23T12:47:09;3.20;;;1.95;;
22191;SDS011;11261;52.456;10.850;2023-05-23T12:49:37;7.88;;;2.40;;
22191;SDS011;11261;52.456;10.850;2023-05-23T12:52:07;5.10;;;2.40;;
22191;SDS011;11261;52.456;10.850;2023-05-23T12:54:35;5.20;;;2.15;;
22191;SDS011;11261;52.456;10.850;2023-05-23T12:57:04;6.57;;;2.30;;
22191;SDS011;11261;52.456;10.850;2023-05-23T12:59:33;7.88;;;2.67;;
22191;SDS011;11261;52.456;10.850;2023-05-23T13:02:01;6.32;;;2.60;;
22191;SDS011;11261;52.456;10.850;2023-05-23T13:04:29;8.32;;;2.63;;
22191;SDS011;11261;52.456;10.850;2023-05-23T13:06:58;9.13;;;2.80;;
22191;SDS011;11261;52.456;10.850;2023-05-23T13:09:28;6.10;;;2.20;;
22191;SDS011;11261;52.456;10.850;2023-05-23T13:11:56;11.82;;;2.92;;
22191;SDS011;11261;52.456;10.850;2023-05-23T13:14:25;5.57;;;2.75;;
22191;SDS011;11261;52.456;10.850;2023-05-23T13:16:53;5.07;;;2.50;;
22191;SDS011;11261;52.456;10.850;2023-05-23T13:19:21;8.70;;;2.22;;
22191;SDS011;11261;52.456;10.850;2023-05-23T13:21:50;6.20;;;2.95;;
22191;SDS011;11261;52.456;10.850;2023-05-23T13:24:18;10.63;;;2.83;;
22191;SDS011;11261;52.456;10.850;2023-05-23T13:26:48;6.57;;;2.55;;
22191;SDS011;11261;52.456;10.850;2023-05-23T13:29:16;6.95;;;3.45;;
22191;SDS011;11261;52.456;10.850;2023-05-23T13:31:44;9.32;;;3.00;;
22191;SDS011;11261;52.456;10.850;2023-05-23T13:34:13;8.85;;;3.15;;
22191;SDS011;11261;52.456;10.850;2023-05-23T13:36:41;9.15;;;2.78;;
22191;SDS011;11261;52.456;10.850;2023-05-23T13:39:09;8.25;;;3.08;;
22191;SDS011;11261;52.456;10.850;2023-05-23T13:41:37;6.97;;;2.88;;
22191;SDS011;11261;52.456;10.850;2023-05-23T13:44:07;10.32;;;2.63;;
22191;SDS011;11261;52.456;10.850;2023-05-23T13:46:35;7.22;;;2.90;;
22191;SDS011;11261;52.456;10.850;2023-05-23T13:49:04;11.85;;;2.72;;
22191;SDS011;11261;52.456;10.850;2023-05-23T13:51:32;12.18;;;2.95;;
22191;SDS011;11261;52.456;10.850;2023-05-23T13:54:02;11.43;;;2.92;;
22191;SDS011;11261;52.456;10.850;2023-05-23T13:56:31;5.35;;;2.70;;
22191;SDS011;11261;52.456;10.850;2023-05-23T13:59:00;7.47;;;2.35;;
22191;SDS011;11261;52.456;10.850;2023-05-23T14:01:29;8.73;;;2.22;;
22191;SDS011;11261;52.456;10.850;2023-05-23T14:03:57;7.53;;;2.25;;
22191;SDS011;11261;52.456;10.850;2023-05-23T14:06:26;7.47;;;2.42;;
22191;SDS011;11261;52.456;10.850;2023-05-23T14:08:54;4.63;;;2.45;;
22191;SDS011;11261;52.456;10.850;2023-05-23T14:11:22;9.88;;;2.20;;
22191;SDS011;11261;52.456;10.850;2023-05-23T14:13:51;10.43;;;2.42;;
22191;SDS011;11261;52.456;10.850;2023-05-23T14:16:19;8.70;;;2.05;;
22191;SDS011;11261;52.456;10.850;2023-05-23T14:18:48;4.93;;;1.92;;
22191;SDS011;11261;52.456;10.850;2023-05-23T14:21:17;6.07;;;2.15;;
22191;SDS011;11261;52.456;10.850;2023-05-23T14:23:45;9.95;;;2.15;;
22191;SDS011;11261;52.456;10.850;2023-05-23T14:26:13;8.43;;;2.10;;
22191;SDS011;11261;52.456;10.850;2023-05-23T14:28:41;3.63;;;2.10;;
22191;SDS011;11261;52.456;10.850;2023-05-23T14:31:10;6.88;;;2.25;;
22191;SDS011;11261;52.456;10.850;2023-05-23T14:33:38;7.47;;;2.30;;
22191;SDS011;11261;52.456;10.850;2023-05-23T14:36:08;8.77;;;2.22;;
22191;SDS011;11261;52.456;10.850;2023-05-23T14:38:36;6.85;;;2.53;;
22191;SDS011;11261;52.456;10.850;2023-05-23T14:41:05;7.80;;;2.58;;
22191;SDS011;11261;52.456;10.850;2023-05-23T14:43:33;7.72;;;2.35;;
22191;SDS011;11261;52.456;10.850;2023-05-23T14:46:01;8.18;;;2.20;;
22191;SDS011;11261;52.456;10.850;2023-05-23T14:48:30;10.32;;;2.65;;
22191;SDS011;11261;52.456;10.850;2023-05-23T14:50:58;6.03;;;2.42;;